Aviation Digital Data Service (ADDS)

Output produced by METARs form (1253 UTC 20 September 2017)
found at http://aviationweather.gov/adds/metars/
 
KBGR 201120Z 2012/2112 05005KT 1SM BR VCSH OVC002 
     FM201400 05006KT P6SM BKN005 
     FM201800 04007KT P6SM BKN013 
     FM202100 05006KT P6SM BKN035 
     FM210500 04008KT P6SM SCT027